createdAt,value
2019-04-26T00:00:19.375Z,17.60
2019-04-26T00:02:56.792Z,17.50
2019-04-26T00:05:34.277Z,17.40
2019-04-26T00:07:57.395Z,17.40
2019-04-26T00:10:37.009Z,17.50
2019-04-26T00:13:25.534Z,17.40
2019-04-26T00:16:14.716Z,17.50
2019-04-26T00:18:44.149Z,17.40
2019-04-26T00:21:14.057Z,17.30
2019-04-26T00:23:43.678Z,17.20
2019-04-26T00:26:13.540Z,17.20
2019-04-26T00:28:42.888Z,17.20
2019-04-26T00:31:12.849Z,17.20
2019-04-26T00:33:42.208Z,17.10
2019-04-26T00:36:12.356Z,17.10
2019-04-26T00:38:42.573Z,17.10
2019-04-26T00:41:12.741Z,17.00
2019-04-26T00:43:42.437Z,17.00
2019-04-26T00:46:13.242Z,17.00
2019-04-26T00:48:44.652Z,16.90
2019-04-26T00:51:16.997Z,16.90
2019-04-26T00:53:47.830Z,16.80
2019-04-26T00:56:18.013Z,16.80
2019-04-26T00:58:47.636Z,16.80
2019-04-26T01:01:18.639Z,16.80
2019-04-26T01:03:47.949Z,16.80
2019-04-26T01:06:18.971Z,16.80
2019-04-26T01:08:51.088Z,16.70
2019-04-26T01:11:19.745Z,16.70
2019-04-26T01:13:49.128Z,16.80
2019-04-26T01:16:18.510Z,16.80
2019-04-26T01:18:48.808Z,16.70
2019-04-26T01:21:20.585Z,16.70
2019-04-26T01:23:53.317Z,16.60
2019-04-26T01:26:28.825Z,16.60
2019-04-26T01:29:03.762Z,16.60
2019-04-26T01:31:35.617Z,16.60
2019-04-26T01:34:05.082Z,16.60
2019-04-26T01:36:36.459Z,16.60
2019-04-26T01:39:16.867Z,16.60
2019-04-26T01:41:53.417Z,16.60
2019-04-26T01:44:37.445Z,16.60
2019-04-26T01:47:06.778Z,16.50
2019-04-26T01:49:36.734Z,16.40
2019-04-26T01:52:10.628Z,16.40
2019-04-26T01:54:42.807Z,16.40
2019-04-26T01:57:12.765Z,16.30
2019-04-26T01:59:46.129Z,16.30
2019-04-26T02:02:33.102Z,16.30
2019-04-26T02:05:05.637Z,16.20
2019-04-26T02:07:41.797Z,16.20
2019-04-26T02:10:13.427Z,16.20
2019-04-26T02:12:45.908Z,16.20
2019-04-26T02:15:16.728Z,16.20
2019-04-26T02:17:48.549Z,16.20
2019-04-26T02:21:06.421Z,16.10
2019-04-26T02:23:41.588Z,16.10
2019-04-26T02:26:28.810Z,16.10
2019-04-26T02:28:58.136Z,16.00
2019-04-26T02:31:29.281Z,16.00
2019-04-26T02:34:00.251Z,16.00
2019-04-26T02:36:48.427Z,16.00
2019-04-26T02:39:05.606Z,15.90
2019-04-26T02:41:37.149Z,15.90
2019-04-26T02:44:10.963Z,15.90
2019-04-26T02:46:51.697Z,15.90
2019-04-26T02:49:33.013Z,15.90
2019-04-26T02:52:06.841Z,15.90
2019-04-26T02:54:45.051Z,15.90
2019-04-26T02:57:20.814Z,15.90
2019-04-26T02:59:52.757Z,15.90
2019-04-26T03:02:23.741Z,15.80
2019-04-26T03:04:57.189Z,15.80
2019-04-26T03:07:40.653Z,15.90
2019-04-26T03:10:10.165Z,15.90
2019-04-26T03:12:43.024Z,15.90
2019-04-26T03:15:49.218Z,15.90
2019-04-26T03:18:48.093Z,15.90
2019-04-26T03:21:43.949Z,15.90
2019-04-26T03:24:19.049Z,15.90
2019-04-26T03:27:35.044Z,15.80
2019-04-26T03:30:21.434Z,15.80
2019-04-26T03:33:16.982Z,15.90
2019-04-26T03:36:14.496Z,15.90
2019-04-26T03:39:20.452Z,15.90
2019-04-26T03:42:33.174Z,15.80
2019-04-26T03:45:38.959Z,15.80
2019-04-26T03:48:26.172Z,15.70
2019-04-26T03:51:05.100Z,15.70
2019-04-26T03:53:52.143Z,15.70
2019-04-26T03:56:50.900Z,15.60
2019-04-26T03:59:52.163Z,15.60
2019-04-26T04:02:36.674Z,15.60
2019-04-26T04:05:21.439Z,15.60
2019-04-26T04:07:53.978Z,15.60
2019-04-26T04:10:26.473Z,15.60
2019-04-26T04:13:10.151Z,15.70
2019-04-26T04:15:46.220Z,15.80
2019-04-26T04:18:22.621Z,15.80
2019-04-26T04:21:37.472Z,15.80
2019-04-26T04:24:19.193Z,15.70
2019-04-26T04:27:26.678Z,15.70
2019-04-26T04:30:25.038Z,15.80
2019-04-26T04:33:50.549Z,16.30
2019-04-26T04:36:28.393Z,16.80
2019-04-26T04:39:40.821Z,17.40
2019-04-26T04:42:31.521Z,17.70
2019-04-26T04:45:16.134Z,18.10
2019-04-26T04:48:16.864Z,18.20
2019-04-26T04:50:52.699Z,18.10
2019-04-26T04:53:49.803Z,18.20
2019-04-26T04:56:37.211Z,18.00
2019-04-26T04:59:11.205Z,18.10
2019-04-26T05:02:14.255Z,18.30
2019-04-26T05:05:31.259Z,18.40
2019-04-26T05:08:42.892Z,18.80
2019-04-26T05:11:23.492Z,18.90
2019-04-26T05:13:58.387Z,18.60
2019-04-26T05:16:55.354Z,18.60
2019-04-26T05:19:53.037Z,18.70
2019-04-26T05:23:08.216Z,18.40
2019-04-26T05:27:01.372Z,18.10
2019-04-26T05:29:57.959Z,17.90
2019-04-26T05:33:10.920Z,17.70
2019-04-26T05:36:15.374Z,17.70
2019-04-26T05:39:14.422Z,17.70
2019-04-26T05:42:37.732Z,17.80
2019-04-26T05:45:51.451Z,17.80
2019-04-26T05:49:07.458Z,17.90
2019-04-26T05:52:06.540Z,18.10
2019-04-26T05:55:18.734Z,18.20
2019-04-26T05:58:33.810Z,18.30
2019-04-26T06:01:32.314Z,18.50
2019-04-26T06:04:35.270Z,18.60
2019-04-26T06:07:32.435Z,18.60
2019-04-26T06:10:29.037Z,18.60
2019-04-26T06:13:33.318Z,18.90
2019-04-26T06:16:38.744Z,19.00
2019-04-26T06:19:30.303Z,19.10
2019-04-26T06:22:11.932Z,19.20
2019-04-26T06:25:09.033Z,19.40
2019-04-26T06:28:05.915Z,19.40
2019-04-26T06:30:49.043Z,19.60
2019-04-26T06:33:57.216Z,19.70
2019-04-26T06:36:36.696Z,19.80
2019-04-26T06:39:36.788Z,19.70
2019-04-26T06:42:45.471Z,19.80
2019-04-26T06:45:55.722Z,19.90
2019-04-26T06:48:40.740Z,20.00
2019-04-26T06:51:24.657Z,20.30
2019-04-26T06:54:06.913Z,20.40
2019-04-26T06:57:31.496Z,20.60
2019-04-26T07:00:09.981Z,20.60
2019-04-26T07:02:57.430Z,20.90
2019-04-26T07:05:30.192Z,21.00
2019-04-26T07:08:57.953Z,21.00
2019-04-26T07:12:27.949Z,21.10
2019-04-26T07:15:30.903Z,21.40
2019-04-26T07:18:32.448Z,21.60
2019-04-26T07:21:42.514Z,21.90
2019-04-26T07:24:55.974Z,21.70
2019-04-26T07:27:45.061Z,21.70
2019-04-26T07:30:37.244Z,21.80
2019-04-26T07:33:30.680Z,22.00
2019-04-26T07:36:33.464Z,21.90
2019-04-26T07:39:34.397Z,22.10
2019-04-26T07:42:50.033Z,22.10
2019-04-26T07:45:49.076Z,22.00
2019-04-26T07:48:48.886Z,22.10
2019-04-26T07:51:45.864Z,22.50
2019-04-26T07:54:47.695Z,22.90
2019-04-26T07:57:41.184Z,23.00
2019-04-26T08:00:21.110Z,23.20
2019-04-26T08:03:10.832Z,23.50
2019-04-26T08:05:46.607Z,23.90
2019-04-26T08:08:20.133Z,23.70
2019-04-26T08:11:20.107Z,23.50
2019-04-26T08:13:58.917Z,23.50
2019-04-26T08:16:48.741Z,23.90
2019-04-26T08:19:21.975Z,24.10
2019-04-26T08:21:52.668Z,24.30
2019-04-26T08:24:28.185Z,24.40
2019-04-26T08:27:23.719Z,24.50
2019-04-26T08:29:58.086Z,24.50
2019-04-26T08:32:32.205Z,24.90
2019-04-26T08:35:16.837Z,25.10
2019-04-26T08:37:53.366Z,25.20
2019-04-26T08:40:30.646Z,25.40
2019-04-26T08:43:14.618Z,25.40
2019-04-26T08:46:13.316Z,25.20
2019-04-26T08:48:51.776Z,25.10
2019-04-26T08:51:22.264Z,25.10
2019-04-26T08:53:54.341Z,25.10
2019-04-26T08:56:29.005Z,25.00
2019-04-26T08:59:02.787Z,25.20
2019-04-26T09:01:53.028Z,25.30
2019-04-26T09:04:34.763Z,25.70
2019-04-26T09:07:09.702Z,25.70
2019-04-26T09:09:42.091Z,25.60
2019-04-26T09:12:32.293Z,25.60
2019-04-26T09:15:08.111Z,25.80
2019-04-26T09:17:37.852Z,26.10
2019-04-26T09:20:09.405Z,26.40
2019-04-26T09:23:04.854Z,26.60
2019-04-26T09:25:39.274Z,26.70
2019-04-26T09:28:16.828Z,27.00
2019-04-26T09:31:03.796Z,27.00
2019-04-26T09:33:39.780Z,26.80
2019-04-26T09:36:09.220Z,26.40
2019-04-26T09:38:38.584Z,26.20
2019-04-26T09:41:07.959Z,26.00
2019-04-26T09:44:00.380Z,26.10
2019-04-26T09:46:54.493Z,26.40
2019-04-26T09:49:41.121Z,26.40
2019-04-26T09:52:16.782Z,26.60
2019-04-26T09:54:46.159Z,26.40
2019-04-26T09:57:15.521Z,26.00
2019-04-26T09:59:44.894Z,25.70
2019-04-26T10:02:14.300Z,25.70
2019-04-26T10:04:43.695Z,25.80
2019-04-26T10:07:13.212Z,26.00
2019-04-26T10:09:42.605Z,26.20
2019-04-26T10:12:30.935Z,26.40
2019-04-26T10:15:22.368Z,26.70
2019-04-26T10:17:52.359Z,27.10
2019-04-26T10:20:21.960Z,27.30
2019-04-26T10:22:51.373Z,27.40
2019-04-26T10:25:20.810Z,27.40
2019-04-26T10:27:50.888Z,27.00
2019-04-26T10:30:20.400Z,26.90
2019-04-26T10:32:51.181Z,26.70
2019-04-26T10:35:21.746Z,26.50
2019-04-26T10:37:53.075Z,26.30
2019-04-26T10:40:34.995Z,26.50
2019-04-26T10:42:54.966Z,26.80
2019-04-26T10:45:24.633Z,27.00
2019-04-26T10:47:54.293Z,27.20
2019-04-26T10:50:24.348Z,27.00
2019-04-26T10:53:09.070Z,26.90
2019-04-26T10:55:59.855Z,26.80
2019-04-26T10:58:40.311Z,26.50
2019-04-26T11:01:12.815Z,26.10
2019-04-26T11:03:42.164Z,26.00
2019-04-26T11:06:11.576Z,26.20
2019-04-26T11:08:40.888Z,26.00
2019-04-26T11:11:10.593Z,25.90
2019-04-26T11:13:39.975Z,25.90
2019-04-26T11:16:09.423Z,26.00
2019-04-26T11:18:38.784Z,25.90
2019-04-26T11:21:08.184Z,26.00
2019-04-26T11:23:41.054Z,26.10
2019-04-26T11:26:08.736Z,26.20
2019-04-26T11:28:38.101Z,26.50
2019-04-26T11:31:07.459Z,26.60
2019-04-26T11:36:08.802Z,26.80
2019-04-26T11:38:38.268Z,26.90
2019-04-26T11:40:14.005Z,26.70
2019-04-26T11:41:07.688Z,26.80
2019-04-26T11:43:37.068Z,26.70
2019-04-26T11:46:06.417Z,26.70
2019-04-26T11:48:35.749Z,26.50
2019-04-26T11:51:05.140Z,26.30
2019-04-26T11:53:34.537Z,26.30
2019-04-26T11:56:04.838Z,26.40
2019-04-26T11:58:35.039Z,26.40
2019-04-26T12:01:06.477Z,26.40
2019-04-26T12:03:35.908Z,26.60
2019-04-26T12:06:33.353Z,26.40
2019-04-26T12:09:09.669Z,25.90
2019-04-26T12:11:49.022Z,25.70
2019-04-26T12:14:20.078Z,25.70
2019-04-26T12:16:48.091Z,25.50
2019-04-26T12:19:14.334Z,25.30
2019-04-26T12:21:43.112Z,25.40
2019-04-26T12:24:12.514Z,25.40
2019-04-26T12:26:43.654Z,25.60
2019-04-26T12:29:14.728Z,25.80
2019-04-26T12:31:44.049Z,26.00
2019-04-26T12:34:14.143Z,26.10
2019-04-26T12:36:44.408Z,26.20
2019-04-26T12:39:13.972Z,26.20
2019-04-26T12:41:43.340Z,26.30
2019-04-26T12:44:13.415Z,26.30
2019-04-26T12:46:51.740Z,26.20
2019-04-26T12:49:24.336Z,26.10
2019-04-26T12:51:52.257Z,26.50
2019-04-26T12:54:21.694Z,27.00
2019-04-26T12:56:51.044Z,27.00
2019-04-26T12:59:22.346Z,27.00
2019-04-26T13:02:04.677Z,27.00
2019-04-26T13:04:35.235Z,26.80
2019-04-26T13:07:22.753Z,26.40
2019-04-26T13:09:52.355Z,26.10
2019-04-26T13:12:29.836Z,26.10
2019-04-26T13:15:50.467Z,26.30
2019-04-26T13:18:19.601Z,26.40
2019-04-26T13:20:48.976Z,26.50
2019-04-26T13:23:18.321Z,26.20
2019-04-26T13:25:47.725Z,25.90
2019-04-26T13:28:20.341Z,25.90
2019-04-26T13:30:48.112Z,25.70
2019-04-26T13:33:17.530Z,25.70
2019-04-26T13:36:01.882Z,25.50
2019-04-26T13:38:17.856Z,25.50
2019-04-26T13:40:47.215Z,25.50
2019-04-26T13:43:16.585Z,25.40
2019-04-26T13:46:03.328Z,25.40
2019-04-26T13:48:45.403Z,25.20
2019-04-26T13:51:15.657Z,25.40
2019-04-26T13:53:45.036Z,25.70
2019-04-26T13:56:14.410Z,25.70
2019-04-26T13:58:43.929Z,25.80
2019-04-26T14:01:14.733Z,25.80
2019-04-26T14:03:44.364Z,25.80
2019-04-26T14:06:13.820Z,26.00
2019-04-26T14:08:44.336Z,26.30
2019-04-26T14:11:13.693Z,26.20
2019-04-26T14:13:43.163Z,26.00
2019-04-26T14:16:12.530Z,25.80
2019-04-26T14:18:41.979Z,25.80
2019-04-26T14:21:11.364Z,25.70
2019-04-26T14:23:59.665Z,25.60
2019-04-26T14:26:47.261Z,25.60
2019-04-26T14:29:16.615Z,25.50
2019-04-26T14:31:47.308Z,25.50
2019-04-26T14:34:17.036Z,25.40
2019-04-26T14:36:46.375Z,25.30
2019-04-26T14:39:19.660Z,25.20
2019-04-26T14:41:46.947Z,25.30
2019-04-26T14:44:16.425Z,25.30
2019-04-26T14:46:48.991Z,25.40
2019-04-26T14:49:19.144Z,25.50
2019-04-26T14:51:51.243Z,25.60
2019-04-26T14:54:18.882Z,25.50
2019-04-26T14:56:52.427Z,25.20
2019-04-26T14:59:39.444Z,24.90
2019-04-26T15:02:33.967Z,24.50
2019-04-26T15:05:13.252Z,24.30
2019-04-26T15:07:49.403Z,24.10
2019-04-26T15:10:14.064Z,24.20
2019-04-26T15:12:48.267Z,24.10
2019-04-26T15:15:14.456Z,24.10
2019-04-26T15:17:43.833Z,24.10
2019-04-26T15:20:16.720Z,24.10
2019-04-26T15:22:48.547Z,24.20
2019-04-26T15:25:15.521Z,24.10
2019-04-26T15:27:44.926Z,24.20
2019-04-26T15:30:14.530Z,24.10
2019-04-26T15:32:44.028Z,24.10
2019-04-26T15:35:17.462Z,24.20
2019-04-26T15:37:44.392Z,24.40
2019-04-26T15:40:27.357Z,24.60
2019-04-26T15:43:14.434Z,24.60
2019-04-26T15:46:00.088Z,24.60
2019-04-26T15:48:40.187Z,24.60
2019-04-26T15:51:09.616Z,24.60
2019-04-26T15:53:44.848Z,24.60
2019-04-26T15:56:16.276Z,24.20
2019-04-26T15:58:47.224Z,23.90
2019-04-26T16:01:13.828Z,23.80
2019-04-26T16:03:44.584Z,23.80
2019-04-26T16:06:14.052Z,23.80
2019-04-26T16:08:45.704Z,23.70
2019-04-26T16:11:15.076Z,23.40
2019-04-26T16:13:45.143Z,23.20
2019-04-26T16:16:16.581Z,23.20
2019-04-26T16:18:50.030Z,23.00
2019-04-26T16:21:17.959Z,23.00
2019-04-26T16:23:52.052Z,23.10
2019-04-26T16:26:19.045Z,23.20
2019-04-26T16:29:07.347Z,23.20
2019-04-26T16:31:52.932Z,23.50
2019-04-26T16:34:23.395Z,24.30
2019-04-26T16:36:52.804Z,24.40
2019-04-26T16:39:23.831Z,24.70
2019-04-26T16:41:53.168Z,24.30
2019-04-26T16:44:28.262Z,23.20
2019-04-26T16:47:00.951Z,22.50
2019-04-26T16:49:24.778Z,22.20
2019-04-26T16:52:02.204Z,22.00
2019-04-26T16:54:26.758Z,21.90
2019-04-26T16:56:58.940Z,21.90
2019-04-26T16:59:27.279Z,21.80
2019-04-26T17:02:01.463Z,21.80
2019-04-26T17:04:32.113Z,21.90
2019-04-26T17:07:02.106Z,22.30
2019-04-26T17:09:53.976Z,22.60
2019-04-26T17:12:02.405Z,22.40
2019-04-26T17:14:34.103Z,22.00
2019-04-26T17:17:03.269Z,21.90
2019-04-26T17:19:34.236Z,21.80
2019-04-26T17:22:14.152Z,21.60
2019-04-26T17:25:02.768Z,21.40
2019-04-26T17:27:33.060Z,21.20
2019-04-26T17:30:03.824Z,20.90
2019-04-26T17:32:35.038Z,20.60
2019-04-26T17:35:07.387Z,20.40
2019-04-26T17:37:35.630Z,20.30
2019-04-26T17:40:05.275Z,20.10
2019-04-26T17:42:36.443Z,19.90
2019-04-26T17:45:07.131Z,19.60
2019-04-26T17:47:40.058Z,19.50
2019-04-26T17:50:07.944Z,19.40
2019-04-26T17:52:37.797Z,19.20
2019-04-26T17:55:07.723Z,19.00
2019-04-26T17:57:43.591Z,18.90
2019-04-26T18:00:13.762Z,18.90
2019-04-26T18:02:47.529Z,18.80
2019-04-26T18:05:13.014Z,18.60
2019-04-26T18:07:50.267Z,18.50
2019-04-26T18:10:13.609Z,18.40
2019-04-26T18:12:45.109Z,18.30
2019-04-26T18:15:19.186Z,18.20
2019-04-26T18:18:04.325Z,18.10
2019-04-26T18:20:51.221Z,18.00
2019-04-26T18:23:20.887Z,17.90
2019-04-26T18:25:50.260Z,17.80
2019-04-26T18:28:19.620Z,17.80
2019-04-26T18:30:49.017Z,17.70
2019-04-26T18:33:22.500Z,17.60
2019-04-26T18:35:54.078Z,17.60
2019-04-26T18:38:20.489Z,17.50
2019-04-26T18:41:00.769Z,17.40
2019-04-26T18:43:24.130Z,17.30
2019-04-26T18:45:53.605Z,17.30
2019-04-26T18:48:23.633Z,17.20
2019-04-26T18:50:53.054Z,17.10
2019-04-26T18:53:43.885Z,17.00
2019-04-26T18:56:13.366Z,17.00
2019-04-26T18:58:42.821Z,16.90
2019-04-26T19:01:13.764Z,16.80
2019-04-26T19:03:43.726Z,16.80
2019-04-26T19:06:27.028Z,16.70
2019-04-26T19:08:49.789Z,16.70
2019-04-26T19:11:15.218Z,16.60
2019-04-26T19:14:02.231Z,16.60
2019-04-26T19:16:39.728Z,16.60
2019-04-26T19:19:22.769Z,16.60
2019-04-26T19:21:54.665Z,16.50
2019-04-26T19:24:24.075Z,16.50
2019-04-26T19:26:53.475Z,16.40
2019-04-26T19:29:32.697Z,16.40
2019-04-26T19:31:56.701Z,16.30
2019-04-26T19:34:26.132Z,16.30
2019-04-26T19:36:59.606Z,16.30
2019-04-26T19:39:32.434Z,16.30
2019-04-26T19:41:58.693Z,16.30
2019-04-26T19:44:28.081Z,16.30
2019-04-26T19:47:12.361Z,16.30
2019-04-26T19:50:09.655Z,16.30
2019-04-26T19:52:42.903Z,16.30
2019-04-26T19:55:23.997Z,16.30
2019-04-26T19:58:01.934Z,16.30
2019-04-26T20:00:32.193Z,16.30
2019-04-26T20:03:01.724Z,16.20
2019-04-26T20:05:31.984Z,16.10
2019-04-26T20:08:02.917Z,16.10
2019-04-26T20:10:36.235Z,16.10
2019-04-26T20:13:03.470Z,16.00
2019-04-26T20:15:32.836Z,16.10
2019-04-26T20:18:03.911Z,16.10
2019-04-26T20:20:36.257Z,16.10
2019-04-26T20:23:07.852Z,16.10
2019-04-26T20:25:35.428Z,16.00
2019-04-26T20:28:04.873Z,16.00
2019-04-26T20:30:42.819Z,16.00
2019-04-26T20:33:12.231Z,15.90
2019-04-26T20:35:42.371Z,15.90
2019-04-26T20:38:11.962Z,15.80
2019-04-26T20:40:43.376Z,15.80
2019-04-26T20:43:23.770Z,15.80
2019-04-26T20:46:07.977Z,15.70
2019-04-26T20:48:14.717Z,15.60
2019-04-26T20:50:44.079Z,15.50
2019-04-26T20:53:13.476Z,15.30
2019-04-26T20:55:42.848Z,15.30
2019-04-26T20:58:12.191Z,15.20
2019-04-26T21:00:53.822Z,15.10
2019-04-26T21:03:23.073Z,15.00
2019-04-26T21:05:46.538Z,15.00
2019-04-26T21:08:14.766Z,15.00
2019-04-26T21:10:44.107Z,15.00
2019-04-26T21:13:13.480Z,15.00
2019-04-26T21:15:56.099Z,15.00
2019-04-26T21:18:13.978Z,15.00
2019-04-26T21:20:43.342Z,15.00
2019-04-26T21:23:13.248Z,15.00
2019-04-26T21:25:55.651Z,14.90
2019-04-26T21:28:38.062Z,14.80
2019-04-26T21:31:28.442Z,14.70
2019-04-26T21:34:07.856Z,14.60
2019-04-26T21:37:06.960Z,14.60
2019-04-26T21:39:47.594Z,14.50
2019-04-26T21:42:17.268Z,14.40
2019-04-26T21:44:51.794Z,14.40
2019-04-26T21:47:18.919Z,14.40
2019-04-26T21:49:54.001Z,14.40
2019-04-26T21:52:21.349Z,14.40
2019-04-26T21:54:53.176Z,14.40
2019-04-26T21:57:25.120Z,14.40
2019-04-26T21:59:54.026Z,14.40
2019-04-26T22:02:25.531Z,14.30
2019-04-26T22:04:55.040Z,14.20
2019-04-26T22:07:24.422Z,14.10
2019-04-26T22:10:00.018Z,13.90
2019-04-26T22:12:31.294Z,13.70
2019-04-26T22:15:11.184Z,13.60
2019-04-26T22:17:41.654Z,13.40
2019-04-26T22:20:34.104Z,13.30
2019-04-26T22:23:28.722Z,13.20
2019-04-26T22:26:00.076Z,13.00
2019-04-26T22:28:31.185Z,12.80
2019-04-26T22:31:07.000Z,12.60
2019-04-26T22:33:34.090Z,12.50
2019-04-26T22:36:03.945Z,12.40
2019-04-26T22:38:33.997Z,12.40
2019-04-26T22:41:03.483Z,12.30
2019-04-26T22:43:55.290Z,12.30
2019-04-26T22:46:47.019Z,12.20
2019-04-26T22:49:13.707Z,12.20
2019-04-26T22:51:43.549Z,12.10
2019-04-26T22:54:12.969Z,12.10
2019-04-26T22:56:45.599Z,12.00
2019-04-26T22:59:13.915Z,12.00
2019-04-26T23:01:48.272Z,11.90
2019-04-26T23:04:16.355Z,11.80
2019-04-26T23:06:46.842Z,11.80
2019-04-26T23:09:20.459Z,11.70
2019-04-26T23:11:53.856Z,11.60
2019-04-26T23:14:37.143Z,11.60
2019-04-26T23:17:27.160Z,11.60
2019-04-26T23:19:59.145Z,11.60
2019-04-26T23:22:30.994Z,11.50
2019-04-26T23:24:59.678Z,11.40
2019-04-26T23:27:29.154Z,11.30
2019-04-26T23:29:58.595Z,11.20
2019-04-26T23:32:27.961Z,11.10
2019-04-26T23:34:58.258Z,11.10
2019-04-26T23:37:28.754Z,11.00
2019-04-26T23:39:58.118Z,10.90
2019-04-26T23:42:27.684Z,10.80
2019-04-26T23:45:03.272Z,10.80
2019-04-26T23:47:37.356Z,10.70
2019-04-26T23:50:04.896Z,10.70
2019-04-26T23:52:34.282Z,10.70
2019-04-26T23:55:07.298Z,10.70
2019-04-26T23:57:36.312Z,10.70
